createdAt,value
2022-08-30T00:00:15.511Z,80.80
2022-08-30T00:04:29.378Z,81.00
2022-08-30T00:08:44.126Z,81.20
2022-08-30T00:12:58.943Z,81.60
2022-08-30T00:17:14.632Z,81.50
2022-08-30T00:21:28.506Z,81.00
2022-08-30T00:25:42.637Z,80.70
2022-08-30T00:29:56.712Z,80.90
2022-08-30T00:34:11.878Z,81.30
2022-08-30T00:38:25.644Z,81.90
2022-08-30T00:42:40.495Z,82.00
2022-08-30T00:46:54.296Z,82.00
2022-08-30T00:51:12.465Z,82.00
2022-08-30T00:55:26.597Z,82.20
2022-08-30T00:59:40.990Z,82.40
2022-08-30T01:03:55.062Z,83.00
2022-08-30T01:08:10.360Z,83.60
2022-08-30T01:12:24.236Z,84.10
2022-08-30T01:16:38.987Z,84.60
2022-08-30T01:21:02.712Z,85.00
2022-08-30T01:25:20.695Z,85.20
2022-08-30T01:29:35.810Z,85.60
2022-08-30T01:33:51.045Z,86.50
2022-08-30T01:38:05.361Z,86.90
2022-08-30T01:42:20.518Z,87.30
2022-08-30T01:46:37.634Z,87.80
2022-08-30T01:50:52.019Z,88.20
2022-08-30T01:55:08.024Z,88.30
2022-08-30T01:59:23.968Z,89.00
2022-08-30T02:03:38.267Z,90.00
2022-08-30T02:07:52.186Z,90.20
2022-08-30T02:12:07.400Z,90.20
2022-08-30T02:16:25.399Z,90.40
2022-08-30T02:20:40.083Z,90.40
2022-08-30T02:24:53.824Z,90.30
2022-08-30T02:29:08.001Z,90.30
2022-08-30T02:33:23.154Z,90.30
2022-08-30T02:37:37.567Z,90.30
2022-08-30T02:41:51.366Z,90.30
2022-08-30T02:46:05.355Z,90.30
2022-08-30T02:50:20.660Z,90.30
2022-08-30T02:54:34.543Z,90.50
2022-08-30T02:58:48.381Z,90.50
2022-08-30T03:03:03.982Z,90.30
2022-08-30T03:07:19.979Z,90.20
2022-08-30T03:11:34.721Z,90.20
2022-08-30T03:15:50.435Z,90.20
2022-08-30T03:20:05.070Z,90.30
2022-08-30T03:24:20.208Z,90.50
2022-08-30T03:28:34.166Z,90.90
2022-08-30T03:32:48.753Z,91.20
2022-08-30T03:37:05.343Z,91.60
2022-08-30T03:41:20.627Z,91.90
2022-08-30T03:45:35.378Z,92.00
2022-08-30T03:49:49.376Z,91.90
2022-08-30T03:54:03.152Z,91.90
2022-08-30T03:58:19.148Z,91.90
2022-08-30T04:02:33.230Z,91.80
2022-08-30T04:06:47.131Z,91.60
2022-08-30T04:11:02.467Z,91.50
2022-08-30T04:15:21.592Z,91.30
2022-08-30T04:19:35.376Z,91.50
2022-08-30T04:23:49.222Z,91.20
2022-08-30T04:28:03.609Z,91.20
2022-08-30T04:32:19.466Z,91.20
2022-08-30T04:36:33.538Z,91.20
2022-08-30T04:40:48.807Z,91.20
2022-08-30T04:45:05.556Z,91.30
2022-08-30T04:49:21.691Z,91.50
2022-08-30T04:53:36.289Z,92.30
2022-08-30T04:57:50.589Z,93.20
2022-08-30T05:02:04.787Z,92.30
2022-08-30T05:06:21.222Z,90.30
2022-08-30T05:10:35.262Z,87.70
2022-08-30T05:14:49.166Z,82.30
2022-08-30T05:19:03.646Z,78.70
2022-08-30T05:23:19.106Z,77.60
2022-08-30T05:27:33.121Z,75.30
2022-08-30T05:31:51.496Z,73.90
2022-08-30T05:36:07.384Z,72.50
2022-08-30T05:40:23.496Z,69.90
2022-08-30T05:44:37.490Z,67.30
2022-08-30T05:48:58.706Z,65.60
2022-08-30T05:53:12.560Z,63.10
2022-08-30T05:57:27.857Z,61.60
2022-08-30T06:01:43.753Z,59.70
2022-08-30T06:05:57.621Z,57.70
2022-08-30T06:10:12.454Z,55.80
2022-08-30T06:14:27.958Z,54.20
2022-08-30T06:18:42.066Z,53.00
2022-08-30T06:22:56.118Z,51.30
2022-08-30T06:27:11.866Z,49.70
2022-08-30T06:31:27.827Z,48.50
2022-08-30T06:35:56.788Z,46.70
2022-08-30T06:40:16.774Z,45.60
2022-08-30T06:44:30.716Z,44.10
2022-08-30T06:48:48.289Z,42.60
2022-08-30T06:53:05.957Z,41.30
2022-08-30T06:57:19.879Z,41.10
2022-08-30T07:01:33.844Z,40.30
2022-08-30T07:05:51.206Z,39.10
2022-08-30T07:10:06.016Z,38.20
2022-08-30T07:14:20.057Z,37.20
2022-08-30T07:18:54.557Z,36.20
2022-08-30T07:23:10.268Z,36.00
2022-08-30T07:27:24.050Z,35.80
2022-08-30T07:31:38.146Z,35.60
2022-08-30T07:35:52.073Z,35.90
2022-08-30T07:40:09.184Z,36.50
2022-08-30T07:44:25.120Z,35.90
2022-08-30T07:48:39.354Z,35.20
2022-08-30T07:52:54.068Z,36.10
2022-08-30T07:57:09.335Z,37.50
2022-08-30T08:01:24.428Z,39.00
2022-08-30T08:05:43.245Z,40.00
2022-08-30T08:09:57.023Z,38.70
2022-08-30T08:14:12.335Z,37.10
2022-08-30T08:18:26.268Z,35.70
2022-08-30T08:22:40.385Z,34.30
2022-08-30T08:26:54.911Z,33.80
2022-08-30T08:31:17.507Z,33.00
2022-08-30T08:35:31.542Z,32.20
2022-08-30T08:39:45.802Z,31.30
2022-08-30T08:44:01.747Z,30.50
2022-08-30T08:48:45.564Z,29.90
2022-08-30T08:53:45.883Z,29.80
2022-08-30T08:58:03.110Z,29.90
2022-08-30T09:02:25.243Z,29.30
2022-08-30T09:06:50.153Z,28.80
2022-08-30T09:11:06.832Z,28.70
2022-08-30T09:15:23.847Z,28.90
2022-08-30T09:19:45.408Z,29.00
2022-08-30T09:24:04.859Z,29.00
2022-08-30T09:28:24.331Z,28.90
2022-08-30T09:32:41.669Z,28.60
2022-08-30T09:36:56.143Z,28.70
2022-08-30T09:41:30.114Z,29.20
2022-08-30T09:45:47.177Z,29.60
2022-08-30T09:50:07.503Z,29.10
2022-08-30T09:54:26.683Z,29.10
2022-08-30T09:59:02.115Z,29.90
2022-08-30T10:03:35.706Z,31.10
2022-08-30T10:08:07.290Z,31.00
2022-08-30T10:12:27.521Z,30.00
2022-08-30T10:16:51.731Z,29.80
2022-08-30T10:21:14.466Z,31.10
2022-08-30T10:25:36.222Z,32.20
2022-08-30T10:29:56.786Z,33.90
2022-08-30T10:34:18.843Z,34.40
2022-08-30T10:38:36.079Z,34.60
2022-08-30T10:42:54.173Z,34.40
2022-08-30T10:47:23.349Z,33.20
2022-08-30T10:51:45.657Z,32.20
2022-08-30T10:56:04.200Z,31.80
2022-08-30T11:00:27.488Z,32.20
2022-08-30T11:05:02.561Z,32.00
2022-08-30T11:09:39.784Z,32.20
2022-08-30T11:13:57.249Z,32.20
2022-08-30T11:18:15.137Z,31.30
2022-08-30T11:22:36.834Z,30.80
2022-08-30T11:27:00.498Z,32.00
2022-08-30T11:31:38.526Z,32.40
2022-08-30T11:35:54.890Z,32.70
2022-08-30T11:40:32.220Z,32.60
2022-08-30T11:44:47.354Z,33.50
2022-08-30T11:49:07.079Z,34.70
2022-08-30T11:53:29.689Z,36.00
2022-08-30T11:57:50.035Z,36.90
2022-08-30T12:02:06.499Z,37.30
2022-08-30T12:06:49.460Z,39.00
2022-08-30T12:11:08.985Z,40.90
2022-08-30T12:15:53.720Z,41.80
2022-08-30T12:20:18.609Z,42.60
2022-08-30T12:24:37.104Z,42.80
2022-08-30T12:28:51.752Z,43.60
2022-08-30T12:33:05.909Z,44.20
2022-08-30T12:37:26.317Z,44.60
2022-08-30T12:41:43.702Z,45.00
2022-08-30T12:46:07.280Z,45.30
2022-08-30T12:50:24.103Z,45.80
2022-08-30T12:54:42.315Z,45.80
2022-08-30T12:58:56.218Z,46.20
2022-08-30T13:03:30.692Z,47.20
2022-08-30T13:07:45.422Z,47.90
2022-08-30T13:12:01.721Z,49.40
2022-08-30T13:16:29.539Z,50.40
2022-08-30T13:20:44.010Z,50.70
2022-08-30T13:24:58.813Z,50.70
2022-08-30T13:29:20.068Z,50.30
2022-08-30T13:33:33.984Z,49.80
2022-08-30T13:37:51.532Z,49.60
2022-08-30T13:46:53.794Z,48.60
2022-08-30T13:51:09.243Z,48.90
2022-08-30T13:55:24.758Z,49.80
2022-08-30T13:59:38.819Z,50.30
2022-08-30T14:08:49.213Z,50.00
2022-08-30T14:13:09.037Z,50.10
2022-08-30T14:17:25.603Z,50.50
2022-08-30T14:21:41.228Z,50.60
2022-08-30T14:25:55.813Z,51.10
2022-08-30T14:30:11.673Z,50.90
2022-08-30T14:34:25.549Z,50.80
2022-08-30T14:38:40.950Z,50.80
2022-08-30T14:42:56.776Z,50.80
2022-08-30T14:47:10.621Z,50.70
2022-08-30T14:51:25.034Z,50.60
2022-08-30T14:55:41.570Z,50.10
2022-08-30T14:59:55.523Z,50.10
2022-08-30T15:04:10.764Z,50.50
2022-08-30T15:08:24.636Z,49.40
2022-08-30T15:12:41.947Z,49.40
2022-08-30T15:16:58.295Z,48.90
2022-08-30T15:21:12.654Z,49.00
2022-08-30T15:25:26.706Z,48.80
2022-08-30T15:29:42.273Z,49.10
2022-08-30T15:33:56.637Z,49.30
2022-08-30T15:38:12.428Z,49.60
2022-08-30T15:42:27.906Z,49.40
2022-08-30T15:46:45.206Z,49.50
2022-08-30T15:50:59.343Z,49.80
2022-08-30T15:55:13.439Z,49.90
2022-08-30T15:59:27.747Z,50.10
2022-08-30T16:03:43.406Z,50.40
2022-08-30T16:07:57.332Z,50.20
2022-08-30T16:12:11.437Z,50.30
2022-08-30T16:16:26.148Z,50.30
2022-08-30T16:20:42.014Z,50.40
2022-08-30T16:24:55.832Z,50.60
2022-08-30T16:29:10.717Z,50.70
2022-08-30T16:33:25.566Z,50.90
2022-08-30T16:37:40.836Z,51.10
2022-08-30T16:41:54.791Z,51.10
2022-08-30T16:46:10.931Z,51.00
2022-08-30T16:50:24.799Z,50.50
2022-08-30T16:54:40.648Z,50.30
2022-08-30T16:59:00.795Z,50.30
2022-08-30T17:03:16.146Z,50.30
2022-08-30T17:07:30.928Z,50.30
2022-08-30T17:11:46.469Z,50.50
2022-08-30T17:16:00.609Z,51.00
2022-08-30T17:20:16.588Z,51.40
2022-08-30T17:24:30.499Z,51.80
2022-08-30T17:28:45.850Z,52.10
2022-08-30T17:32:59.836Z,52.30
2022-08-30T17:37:14.574Z,52.40
2022-08-30T17:41:28.544Z,52.50
2022-08-30T17:45:43.731Z,52.80
2022-08-30T17:49:57.944Z,53.00
2022-08-30T17:54:13.822Z,53.40
2022-08-30T17:58:27.900Z,53.70
2022-08-30T18:02:43.384Z,54.10
2022-08-30T18:06:57.701Z,54.50
2022-08-30T18:11:11.824Z,54.90
2022-08-30T18:15:25.654Z,55.30
2022-08-30T18:19:46.127Z,55.70
2022-08-30T18:24:00.455Z,56.40
2022-08-30T18:28:14.278Z,56.90
2022-08-30T18:32:32.815Z,57.60
2022-08-30T18:36:53.786Z,58.60
2022-08-30T18:41:09.676Z,59.40
2022-08-30T18:45:24.153Z,60.10
2022-08-30T18:49:38.591Z,60.40
2022-08-30T18:53:55.439Z,61.00
2022-08-30T18:58:09.550Z,61.30
2022-08-30T19:02:27.580Z,61.30
2022-08-30T19:06:43.920Z,62.30
2022-08-30T19:11:04.785Z,62.10
2022-08-30T19:15:23.603Z,62.60
2022-08-30T19:19:48.876Z,63.00
2022-08-30T19:24:05.190Z,63.10
2022-08-30T19:28:20.521Z,63.50
2022-08-30T19:32:34.439Z,63.80
2022-08-30T19:36:48.235Z,64.40
2022-08-30T19:41:02.977Z,64.60
2022-08-30T19:45:21.771Z,65.00
2022-08-30T19:49:36.827Z,65.40
2022-08-30T19:53:51.279Z,66.10
2022-08-30T19:58:10.395Z,66.60
2022-08-30T20:02:27.074Z,66.90
2022-08-30T20:06:42.501Z,67.30
2022-08-30T20:10:57.088Z,67.50
2022-08-30T20:15:14.622Z,67.80
2022-08-30T20:19:31.716Z,68.00
2022-08-30T20:23:45.759Z,68.50
2022-08-30T20:28:00.380Z,68.90
2022-08-30T20:32:14.402Z,69.70
2022-08-30T20:36:29.765Z,70.20
2022-08-30T20:40:44.523Z,70.70
2022-08-30T20:44:59.188Z,71.30
2022-08-30T20:49:15.438Z,71.80
2022-08-30T20:53:31.474Z,72.50
2022-08-30T20:57:45.690Z,73.10
2022-08-30T21:02:01.117Z,73.40
2022-08-30T21:06:17.523Z,74.10
2022-08-30T21:10:32.857Z,74.50
2022-08-30T21:14:46.733Z,75.10
2022-08-30T21:19:00.781Z,75.70
2022-08-30T21:23:14.749Z,76.10
2022-08-30T21:27:30.051Z,76.50
2022-08-30T21:31:44.005Z,77.00
2022-08-30T21:36:17.248Z,77.20
2022-08-30T21:40:31.194Z,77.60
2022-08-30T21:44:46.421Z,77.90
2022-08-30T21:49:01.951Z,78.10
2022-08-30T21:53:17.169Z,78.40
2022-08-30T21:57:32.958Z,78.60
2022-08-30T22:01:49.706Z,78.90
2022-08-30T22:06:03.713Z,79.20
2022-08-30T22:10:18.111Z,79.50
2022-08-30T22:14:33.185Z,79.90
2022-08-30T22:18:48.780Z,80.40
2022-08-30T22:23:02.605Z,80.70
2022-08-30T22:27:16.952Z,81.10
2022-08-30T22:31:31.146Z,81.50
2022-08-30T22:35:48.618Z,81.90
2022-08-30T22:40:02.499Z,82.40
2022-08-30T22:44:16.712Z,82.50
2022-08-30T22:48:30.572Z,82.80
2022-08-30T22:52:45.941Z,83.20
2022-08-30T22:57:00.109Z,83.50
2022-08-30T23:01:23.522Z,84.00
2022-08-30T23:05:37.501Z,84.30
2022-08-30T23:09:52.637Z,84.60
2022-08-30T23:14:07.779Z,84.90
2022-08-30T23:18:21.870Z,85.20
2022-08-30T23:22:35.630Z,85.20
2022-08-30T23:27:08.641Z,85.40
2022-08-30T23:31:40.316Z,85.70
2022-08-30T23:36:11.466Z,86.10
2022-08-30T23:40:43.162Z,87.10
2022-08-30T23:45:15.917Z,86.70
2022-08-30T23:49:46.914Z,87.20
2022-08-30T23:54:18.419Z,87.70
2022-08-30T23:58:49.877Z,87.90
